Time;durP1;ratioP1;P1;durP2;ratioP2;P2;SDS_P1;SDS_P2;PMS_P1;PMS_P2;Temp;Humidity;BMP_temperature;BMP_pressure;BME280_temperature;BME280_humidity;BME280_pressure;Samples;Min_cycle;Max_cycle;Signal;HPM_P1;HPM_P2
2022/01/13 00:01:44;;;;;;;10.57;9.57;;;;;;;-0.61;76.10;101157.44;5053683;28;20501;-66
2022/01/13 00:04:12;;;;;;;13.70;10.33;;;;;;;-0.59;76.73;101153.00;5053803;28;20806;-66
2022/01/13 00:06:41;;;;;;;11.00;9.80;;;;;;;-0.44;76.15;101165.19;5053489;28;20517;-66
2022/01/13 00:09:08;;;;;;;11.40;9.83;;;;;;;-0.40;76.71;101155.44;5053827;28;20447;-66
2022/01/13 00:11:35;;;;;;;11.00;9.90;;;;;;;-0.38;76.05;101158.78;5054069;28;20447;-66
2022/01/13 00:17:08;;;;;;;9.57;8.67;;;;;;;-0.41;76.53;101164.16;5054005;28;20458;-66
2022/01/13 00:19:47;;;;;;;11.07;9.57;;;;;;;-0.31;76.25;101163.59;5053978;28;20538;-66
2022/01/13 00:22:18;;;;;;;9.33;8.43;;;;;;;-0.43;75.58;101166.03;5053058;28;20947;-65
2022/01/13 00:24:49;;;;;;;13.00;9.17;;;;;;;-0.53;75.70;101162.25;5053960;28;20526;-65
2022/01/13 00:27:16;;;;;;;11.63;10.17;;;;;;;-0.60;76.55;101169.56;5053387;28;20459;-65
2022/01/13 00:29:45;;;;;;;13.97;10.07;;;;;;;-0.74;76.36;101163.41;5053702;28;20435;-66
2022/01/13 00:32:14;;;;;;;11.40;9.63;;;;;;;-0.84;76.71;101172.69;5053527;28;20447;-66
2022/01/13 00:34:41;;;;;;;9.93;8.90;;;;;;;-0.90;76.80;101180.84;5054157;28;20522;-65
2022/01/13 00:37:08;;;;;;;10.73;9.70;;;;;;;-1.10;77.68;101181.06;5053201;28;21021;-65
2022/01/13 00:39:36;;;;;;;10.87;9.77;;;;;;;-1.12;77.13;101186.38;5053048;28;20492;-65
2022/01/13 00:42:04;;;;;;;10.33;9.17;;;;;;;-1.15;77.75;101188.28;5053509;28;20435;-66
2022/01/13 00:44:36;;;;;;;10.33;9.33;;;;;;;-1.24;77.82;101191.38;5053101;28;21002;-66
2022/01/13 00:47:05;;;;;;;10.53;8.80;;;;;;;-1.18;78.50;101207.53;5053097;28;20977;-66
2022/01/13 00:49:31;;;;;;;11.40;9.20;;;;;;;-1.16;79.21;101204.84;5053202;28;20446;-66
2022/01/13 00:51:58;;;;;;;11.13;8.97;;;;;;;-1.28;80.23;101213.31;5053290;28;20443;-66
2022/01/13 00:54:25;;;;;;;10.73;9.03;;;;;;;-1.17;79.85;101209.25;5052731;28;20954;-66
2022/01/13 00:56:53;;;;;;;14.97;9.70;;;;;;;-1.03;80.11;101206.72;5052841;28;20505;-66
2022/01/13 00:59:20;;;;;;;19.50;9.60;;;;;;;-1.09;80.14;101201.84;5052824;28;20964;-66
2022/01/13 01:01:48;;;;;;;10.80;9.07;;;;;;;-1.25;80.67;101179.28;5052911;28;20434;-66
2022/01/13 01:04:16;;;;;;;9.00;8.17;;;;;;;-1.06;81.03;101206.06;5052870;28;20871;-66
2022/01/13 01:06:43;;;;;;;13.10;9.30;;;;;;;-0.96;80.64;101212.47;5052695;28;20467;-66
2022/01/13 01:09:15;;;;;;;10.97;8.87;;;;;;;-1.06;80.03;101206.06;5052748;28;20442;-66
2022/01/13 01:11:45;;;;;;;9.53;8.63;;;;;;;-1.12;80.55;101209.84;5053437;28;20443;-66
2022/01/13 01:14:14;;;;;;;10.47;9.40;;;;;;;-1.14;80.49;101213.44;5052857;28;20973;-66
2022/01/13 01:16:41;;;;;;;10.70;9.00;;;;;;;-1.09;80.50;101221.88;5052535;28;20446;-66
2022/01/13 01:19:10;;;;;;;12.33;9.07;;;;;;;-1.16;80.53;101212.66;5052275;28;20443;-66
2022/01/13 01:22:03;;;;;;;10.13;9.00;;;;;;;-1.25;80.93;101210.53;5052759;28;20537;-66
2022/01/13 01:24:57;;;;;;;10.43;8.40;;;;;;;-1.10;81.49;101217.56;5052624;28;20428;-66
2022/01/13 01:27:28;;;;;;;12.60;9.33;;;;;;;-1.05;81.52;101223.38;5052523;28;20868;-66
2022/01/13 01:30:00;;;;;;;9.07;8.17;;;;;;;-0.90;81.39;101227.81;5052694;28;20509;-66
2022/01/13 01:32:28;;;;;;;11.47;9.13;;;;;;;-0.88;81.18;101228.53;5052702;28;20493;-66
2022/01/13 01:34:56;;;;;;;12.30;8.90;;;;;;;-0.87;80.82;101236.28;5052302;28;20431;-66
2022/01/13 01:37:26;;;;;;;11.23;8.77;;;;;;;-0.84;80.86;101238.75;5053038;28;20439;-66
2022/01/13 01:39:54;;;;;;;15.33;9.23;;;;;;;-0.81;81.16;101233.34;5052726;28;20811;-66
2022/01/13 01:42:22;;;;;;;11.90;9.93;;;;;;;-0.70;80.45;101235.38;5051888;28;20442;-66
2022/01/13 01:44:53;;;;;;;10.50;9.43;;;;;;;-0.70;80.92;101245.81;5052311;28;20496;-66
2022/01/13 01:47:23;;;;;;;16.70;11.67;;;;;;;-0.58;81.01;101240.78;5051668;28;21044;-65
2022/01/13 01:49:53;;;;;;;12.90;10.37;;;;;;;-0.47;81.06;101243.66;5052100;28;20930;-65
2022/01/13 01:52:20;;;;;;;11.00;9.80;;;;;;;-0.36;81.34;101238.69;5053217;28;20439;-66
2022/01/13 01:54:49;;;;;;;13.13;10.23;;;;;;;-0.40;82.04;101223.28;5052090;28;20443;-66
2022/01/13 01:57:17;;;;;;;10.50;9.60;;;;;;;-0.34;81.58;101228.16;5051786;28;20451;-66
2022/01/13 01:59:44;;;;;;;13.40;10.30;;;;;;;-0.42;81.96;101219.91;5052338;28;20484;-66
2022/01/13 02:02:13;;;;;;;15.03;10.60;;;;;;;-0.33;81.92;101232.44;5052198;28;20501;-66
2022/01/13 02:04:42;;;;;;;14.17;11.27;;;;;;;-0.31;81.82;101228.84;5051996;28;20951;-66
2022/01/13 02:07:10;;;;;;;15.13;11.30;;;;;;;-0.44;81.68;101227.00;5051128;28;20532;-65
2022/01/13 02:09:38;;;;;;;11.13;9.17;;;;;;;-0.43;82.17;101224.31;5051877;28;20439;-65
2022/01/13 02:12:07;;;;;;;9.97;9.10;;;;;;;-0.48;82.57;101217.66;5051964;28;20435;-66
2022/01/13 02:14:36;;;;;;;10.83;8.60;;;;;;;-0.46;82.47;101223.59;5051703;28;20495;-65
2022/01/13 02:17:09;;;;;;;10.23;9.30;;;;;;;-0.56;82.13;101217.22;5051979;28;20533;-66
2022/01/13 02:19:40;;;;;;;13.73;10.53;;;;;;;-0.47;82.23;101232.38;5052018;28;20431;-66
2022/01/13 02:22:08;;;;;;;13.37;8.97;;;;;;;-0.45;82.02;101222.72;5052069;28;20516;-66
2022/01/13 02:24:36;;;;;;;11.10;9.63;;;;;;;-0.48;81.49;101221.06;5051762;28;20927;-65
2022/01/13 02:27:05;;;;;;;11.10;9.10;;;;;;;-0.49;81.59;101234.25;5051848;28;20532;-65
2022/01/13 02:29:32;;;;;;;10.73;9.53;;;;;;;-0.54;81.80;101226.66;5051512;28;21031;-65
2022/01/13 02:31:59;;;;;;;10.63;9.63;;;;;;;-0.53;81.81;101227.50;5051350;28;20863;-65
2022/01/13 02:34:26;;;;;;;11.83;9.33;;;;;;;-0.60;81.84;101213.09;5051660;28;20474;-65
2022/01/13 02:36:55;;;;;;;13.27;9.33;;;;;;;-0.61;82.23;101211.41;5051999;28;20447;-66
2022/01/13 02:39:27;;;;;;;15.93;10.33;;;;;;;-0.58;82.07;101212.09;5051459;28;20439;-65
2022/01/13 02:41:53;;;;;;;13.63;9.40;;;;;;;-0.74;81.64;101219.06;5051467;28;20462;-65
2022/01/13 02:44:22;;;;;;;15.67;9.97;;;;;;;-0.73;81.90;101210.28;5051877;28;20443;-65
2022/01/13 02:47:20;;;;;;;15.63;10.53;;;;;;;-0.78;82.10;101207.09;5051749;28;20985;-65
2022/01/13 02:49:47;;;;;;;14.30;10.83;;;;;;;-0.81;82.58;101202.03;5052005;28;20441;-66
2022/01/13 02:52:13;;;;;;;12.70;9.47;;;;;;;-0.81;82.62;101203.84;5051149;28;20466;-66
2022/01/13 02:54:42;;;;;;;11.63;10.00;;;;;;;-0.72;82.54;101208.53;5051304;28;20861;-65
2022/01/13 02:57:08;;;;;;;12.37;10.37;;;;;;;-0.69;82.32;101205.78;5051745;28;20498;-65
2022/01/13 02:59:35;;;;;;;12.20;10.70;;;;;;;-0.64;82.30;101199.34;5051332;28;20500;-65
2022/01/13 03:02:02;;;;;;;13.50;9.33;;;;;;;-0.66;82.13;101205.59;5051063;28;20454;-66
2022/01/13 03:04:28;;;;;;;12.77;9.47;;;;;;;-0.65;81.91;101207.28;5051220;28;20971;-66
2022/01/13 03:06:55;;;;;;;10.17;9.20;;;;;;;-0.68;82.00;101203.09;5052109;28;20557;-65
2022/01/13 03:09:22;;;;;;;12.93;10.13;;;;;;;-0.65;81.96;101204.69;5051278;28;20497;-66
2022/01/13 03:11:51;;;;;;;13.50;10.13;;;;;;;-0.62;81.19;101209.72;5051551;28;20439;-67
2022/01/13 03:14:18;;;;;;;19.47;12.37;;;;;;;-0.67;81.65;101209.13;5051290;28;20445;-66
2022/01/13 03:16:46;;;;;;;14.93;11.03;;;;;;;-0.74;81.83;101206.00;5051535;28;20439;-66
2022/01/13 03:19:13;;;;;;;13.10;9.97;;;;;;;-0.77;81.80;101207.97;5053562;28;20443;-66
2022/01/13 03:21:39;;;;;;;13.97;9.47;;;;;;;-0.81;81.79;101196.00;5055059;28;20498;-66
2022/01/13 03:24:09;;;;;;;16.00;11.43;;;;;;;-0.87;82.68;101191.09;5055413;28;20439;-66
2022/01/13 03:26:36;;;;;;;14.70;11.47;;;;;;;-0.87;82.66;101185.88;5055436;28;20474;-66
2022/01/13 03:29:15;;;;;;;15.93;11.17;;;;;;;-0.92;82.92;101188.75;5054960;28;20509;-65
2022/01/13 03:31:43;;;;;;;25.00;14.37;;;;;;;-0.90;83.05;101186.06;5054965;28;20484;-66
2022/01/13 03:34:10;;;;;;;29.63;17.30;;;;;;;-0.89;82.03;101196.41;5055309;28;20524;-66
2022/01/13 03:36:37;;;;;;;24.83;15.73;;;;;;;-0.87;81.89;101198.94;5054877;28;20439;-66
2022/01/13 03:39:05;;;;;;;20.17;12.70;;;;;;;-0.90;81.76;101194.72;5054914;28;20500;-66
2022/01/13 03:41:32;;;;;;;16.67;11.13;;;;;;;-0.96;80.85;101197.66;5054262;28;20438;-66
2022/01/13 03:44:05;;;;;;;18.83;11.37;;;;;;;-1.05;80.61;101202.53;5054292;28;20493;-65
2022/01/13 03:46:34;;;;;;;22.33;12.73;;;;;;;-1.21;81.21;101201.66;5054167;28;20502;-65
2022/01/13 03:49:01;;;;;;;17.73;11.60;;;;;;;-1.21;81.41;101193.81;5054328;28;20466;-65
2022/01/13 03:52:06;;;;;;;25.73;12.67;;;;;;;-1.12;81.09;101201.16;5054599;28;20488;-65
2022/01/13 03:55:26;;;;;;;16.90;12.20;;;;;;;-1.13;81.23;101200.34;5053941;28;20496;-65
2022/01/13 03:58:37;;;;;;;19.93;13.83;;;;;;;-1.25;80.60;101190.56;5054671;28;20492;-65
2022/01/13 04:01:38;;;;;;;21.90;14.47;;;;;;;-1.21;80.02;101193.81;5054483;28;20435;-65
2022/01/13 04:04:04;;;;;;;21.17;15.07;;;;;;;-1.29;79.84;101193.38;5054358;28;20435;-65
2022/01/13 04:06:40;;;;;;;28.77;17.37;;;;;;;-1.27;80.63;101196.72;5054670;28;20536;-65
2022/01/13 04:09:10;;;;;;;24.27;15.27;;;;;;;-1.22;80.17;101206.00;5054377;28;20442;-65
2022/01/13 04:11:37;;;;;;;19.20;12.90;;;;;;;-1.25;79.95;101205.34;5054152;28;20972;-65
2022/01/13 04:14:05;;;;;;;18.13;13.23;;;;;;;-1.18;80.06;101206.72;5053459;28;20493;-65
2022/01/13 04:16:36;;;;;;;21.53;13.87;;;;;;;-1.16;79.74;101210.91;5054273;28;20443;-66
2022/01/13 04:19:07;;;;;;;22.30;13.63;;;;;;;-1.15;79.62;101217.81;5053901;28;20419;-65
2022/01/13 04:21:35;;;;;;;15.50;10.90;;;;;;;-1.12;79.65;101227.22;5054892;28;20423;-65
2022/01/13 04:24:04;;;;;;;12.53;10.33;;;;;;;-1.10;79.26;101238.44;5053779;28;20497;-65
2022/01/13 04:26:33;;;;;;;11.13;10.03;;;;;;;-1.11;79.03;101241.94;5053482;28;21070;-65
2022/01/13 04:29:16;;;;;;;14.90;10.63;;;;;;;-1.14;78.76;101245.56;5053725;28;20527;-65
2022/01/13 04:31:47;;;;;;;15.70;11.87;;;;;;;-1.18;79.07;101240.59;5052855;28;20501;-65
2022/01/13 04:34:14;;;;;;;19.33;12.53;;;;;;;-1.16;79.61;101251.78;5054688;28;20978;-66
2022/01/13 04:36:41;;;;;;;17.57;12.87;;;;;;;-1.19;79.48;101251.91;5052655;28;21067;-65
2022/01/13 04:39:09;;;;;;;19.40;13.10;;;;;;;-1.19;79.91;101252.78;5053227;28;20435;-66
2022/01/13 04:41:38;;;;;;;19.60;14.70;;;;;;;-1.22;80.44;101252.09;5052953;28;20459;-65
2022/01/13 04:44:07;;;;;;;16.80;13.03;;;;;;;-1.19;80.04;101246.72;5053468;28;20435;-65
2022/01/13 04:46:34;;;;;;;22.67;14.33;;;;;;;-1.24;79.79;101246.09;5052973;28;20450;-65
2022/01/13 04:49:02;;;;;;;22.27;13.57;;;;;;;-1.36;80.95;101249.34;5053033;28;20873;-65
2022/01/13 04:51:29;;;;;;;21.40;14.97;;;;;;;-1.33;80.30;101249.19;5053053;28;20435;-65
2022/01/13 04:53:56;;;;;;;23.87;15.10;;;;;;;-1.29;80.12;101250.72;5052940;28;20447;-65
2022/01/13 04:56:29;;;;;;;24.60;14.07;;;;;;;-1.26;80.32;101253.19;5052878;28;20462;-65
2022/01/13 04:58:56;;;;;;;18.40;14.80;;;;;;;-1.24;80.02;101248.72;5052902;28;20942;-65
2022/01/13 05:01:23;;;;;;;23.30;14.10;;;;;;;-1.26;79.79;101254.00;5053436;28;20505;-65
2022/01/13 05:03:50;;;;;;;19.20;12.80;;;;;;;-1.35;80.13;101251.06;5052842;28;20431;-65
2022/01/13 05:06:19;;;;;;;26.53;15.67;;;;;;;-1.35;80.32;101256.25;5052605;28;20434;-65
2022/01/13 05:08:46;;;;;;;26.30;14.83;;;;;;;-1.35;80.52;101261.47;5052898;28;20522;-65
2022/01/13 05:11:13;;;;;;;26.90;15.77;;;;;;;-1.44;80.90;101261.91;5052793;28;20488;-64
2022/01/13 05:13:39;;;;;;;27.73;17.07;;;;;;;-1.40;80.96;101271.25;5052574;28;20497;-64
2022/01/13 05:16:09;;;;;;;30.37;16.80;;;;;;;-1.37;81.02;101264.16;5052749;28;20447;-64
2022/01/13 05:18:46;;;;;;;25.73;15.30;;;;;;;-1.34;80.74;101263.16;5051828;28;20470;-65
2022/01/13 05:21:21;;;;;;;25.27;15.00;;;;;;;-1.39;80.59;101263.38;5052657;28;20435;-65
2022/01/13 05:23:52;;;;;;;24.77;14.10;;;;;;;-1.37;81.04;101268.50;5052297;28;20499;-64
2022/01/13 05:26:19;;;;;;;33.70;15.27;;;;;;;-1.36;80.34;101270.19;5052022;28;20485;-62
2022/01/13 05:28:46;;;;;;;25.83;14.13;;;;;;;-1.36;79.72;101276.25;5052313;28;20508;-63
2022/01/13 05:31:13;;;;;;;22.13;12.60;;;;;;;-1.35;80.15;101271.91;5052059;28;20991;-63
2022/01/13 05:33:39;;;;;;;26.47;15.10;;;;;;;-1.35;79.92;101277.13;5052536;28;20470;-63
2022/01/13 05:36:06;;;;;;;27.70;14.87;;;;;;;-1.33;80.40;101280.47;5052345;28;20938;-63
2022/01/13 05:38:33;;;;;;;28.47;15.87;;;;;;;-1.31;79.98;101289.06;5052757;28;20478;-62
2022/01/13 05:41:01;;;;;;;30.23;16.20;;;;;;;-1.31;80.08;101286.47;5051884;28;20443;-63
2022/01/13 05:43:28;;;;;;;25.67;15.07;;;;;;;-1.38;80.00;101282.47;5052356;28;20461;-63
2022/01/13 05:45:55;;;;;;;20.47;15.30;;;;;;;-1.40;80.26;101279.94;5052213;28;20438;-63
2022/01/13 05:48:21;;;;;;;25.83;16.73;;;;;;;-1.45;80.53;101281.94;5052468;28;20446;-63
2022/01/13 05:50:48;;;;;;;51.73;15.20;;;;;;;-1.40;80.33;101289.50;5051884;28;20500;-68
2022/01/13 05:53:15;;;;;;;20.17;13.60;;;;;;;-1.36;79.82;101291.03;5051726;28;20451;-64
2022/01/13 05:55:41;;;;;;;24.00;14.53;;;;;;;-1.34;79.81;101289.22;5051882;28;21008;-63
2022/01/13 05:58:10;;;;;;;27.23;15.87;;;;;;;-1.32;80.12;101300.38;5051902;28;20528;-63
2022/01/13 06:00:37;;;;;;;18.33;13.53;;;;;;;-1.38;81.17;101303.31;5051363;28;20427;-63
2022/01/13 06:03:04;;;;;;;26.50;15.33;;;;;;;-1.33;80.87;101301.31;5051827;28;20504;-63
2022/01/13 06:05:31;;;;;;;26.23;16.17;;;;;;;-1.29;81.15;101308.06;5065170;28;20450;-63
2022/01/13 06:07:58;;;;;;;31.80;19.07;;;;;;;-1.23;81.22;101313.81;5070964;28;20446;-63
2022/01/13 06:10:25;;;;;;;25.13;16.63;;;;;;;-1.23;81.06;101307.75;5070855;28;20468;-63
2022/01/13 06:12:53;;;;;;;25.03;16.30;;;;;;;-1.30;80.32;101307.22;5071495;28;20441;-63
2022/01/13 06:15:24;;;;;;;18.70;14.60;;;;;;;-1.42;80.45;101307.81;5071246;28;20911;-63
2022/01/13 06:17:52;;;;;;;19.90;14.60;;;;;;;-1.56;82.21;101293.78;5071922;28;20478;-63
2022/01/13 06:20:20;;;;;;;30.07;15.93;;;;;;;-1.29;81.78;101318.50;5071938;28;20503;-63
2022/01/13 06:22:49;;;;;;;28.60;17.13;;;;;;;-1.20;81.00;101318.88;5071373;28;20442;-63
2022/01/13 06:25:17;;;;;;;28.67;16.40;;;;;;;-1.03;80.95;101315.41;5070849;28;20503;-63
2022/01/13 06:27:45;;;;;;;33.23;19.23;;;;;;;-0.80;80.26;101322.88;5069442;28;20507;-63
2022/01/13 06:30:14;;;;;;;27.30;16.07;;;;;;;-0.57;79.85;101318.13;5069679;28;20442;-63
2022/01/13 06:32:42;;;;;;;24.63;15.53;;;;;;;-0.31;78.43;101328.06;5064625;28;20488;-63
2022/01/13 06:35:10;;;;;;;22.83;14.47;;;;;;;-0.03;76.53;101327.38;5069531;28;20863;-63
2022/01/13 06:37:38;;;;;;;20.93;14.23;;;;;;;0.26;75.81;101334.44;5069992;28;20535;-63
2022/01/13 06:40:06;;;;;;;22.57;15.50;;;;;;;0.57;74.98;101344.81;5068395;28;20434;-63
2022/01/13 06:42:33;;;;;;;23.83;15.13;;;;;;;0.86;73.96;101351.81;5051555;28;20439;-63
2022/01/13 06:44:59;;;;;;;23.43;14.70;;;;;;;1.13;71.21;101351.97;5051319;28;20439;-62
2022/01/13 06:47:26;;;;;;;24.60;15.00;;;;;;;1.31;70.75;101349.09;5051073;28;21003;-62
2022/01/13 06:49:54;;;;;;;25.20;15.70;;;;;;;1.48;69.43;101345.47;5062876;28;20441;-62
2022/01/13 06:52:21;;;;;;;32.30;17.93;;;;;;;1.63;70.02;101357.66;5070543;28;20487;-64
2022/01/13 06:54:48;;;;;;;18.80;13.10;;;;;;;1.93;68.06;101361.84;5073672;28;20961;-63
2022/01/13 06:57:15;;;;;;;34.23;18.60;;;;;;;2.21;66.34;101366.16;5074536;28;20509;-64
2022/01/13 06:59:43;;;;;;;46.07;24.90;;;;;;;2.31;65.50;101365.50;5074433;28;21023;-63
2022/01/13 07:02:09;;;;;;;55.07;23.93;;;;;;;2.56;65.00;101370.84;5074611;28;20813;-63
2022/01/13 07:04:36;;;;;;;44.27;21.47;;;;;;;2.84;64.93;101378.59;5075083;28;20430;-63
2022/01/13 07:07:04;;;;;;;37.80;17.73;;;;;;;3.15;63.04;101386.09;5074620;28;20500;-64
2022/01/13 07:09:31;;;;;;;27.93;18.50;;;;;;;3.36;62.13;101386.44;5074997;28;20506;-63
2022/01/13 07:11:58;;;;;;;14.93;13.33;;;;;;;3.47;60.78;101392.63;5075204;28;20438;-63
2022/01/13 07:14:24;;;;;;;13.00;11.57;;;;;;;3.58;60.07;101395.38;5074909;28;20498;-64
2022/01/13 07:16:51;;;;;;;18.73;13.10;;;;;;;3.72;58.51;101391.81;5075077;28;20446;-64
2022/01/13 07:19:18;;;;;;;21.60;12.10;;;;;;;3.64;60.28;101399.38;5074211;28;20482;-64
2022/01/13 07:21:47;;;;;;;16.73;10.87;;;;;;;3.42;57.52;101400.00;5074659;28;20446;-64
2022/01/13 07:24:15;;;;;;;16.23;13.23;;;;;;;3.43;58.67;101399.03;5074298;28;20441;-64
2022/01/13 07:26:42;;;;;;;19.53;16.00;;;;;;;3.53;59.99;101404.50;5075142;28;20434;-64
2022/01/13 07:29:09;;;;;;;16.13;12.80;;;;;;;3.84;58.13;101404.09;5074150;28;20824;-64
2022/01/13 07:31:36;;;;;;;18.70;14.60;;;;;;;4.04;57.15;101409.63;5074722;28;20441;-64
2022/01/13 07:34:03;;;;;;;17.23;12.63;;;;;;;4.13;56.71;101406.34;5074665;28;20523;-64
2022/01/13 07:36:30;;;;;;;18.07;12.30;;;;;;;4.33;55.76;101408.41;5074506;28;20617;-65
2022/01/13 07:38:57;;;;;;;23.20;12.73;;;;;;;4.58;55.11;101407.47;5074021;28;20474;-65
2022/01/13 07:41:25;;;;;;;13.43;12.10;;;;;;;4.28;56.02;101402.63;5073916;28;20196;-65
2022/01/13 07:43:54;;;;;;;15.93;11.53;;;;;;;4.36;55.23;101402.06;5074341;28;20200;-65
2022/01/13 07:46:22;;;;;;;15.00;11.50;;;;;;;4.45;55.78;101404.88;5074343;28;20446;-65
2022/01/13 07:48:48;;;;;;;25.30;15.67;;;;;;;4.73;54.38;101404.56;5073738;28;20442;-65
2022/01/13 07:51:15;;;;;;;23.83;16.50;;;;;;;4.75;53.90;101407.91;5074183;28;20255;-65
2022/01/13 07:53:43;;;;;;;31.20;16.10;;;;;;;4.78;53.18;101415.59;5073722;28;20195;-64
2022/01/13 07:56:10;;;;;;;17.87;13.73;;;;;;;4.57;54.80;101409.25;5074114;28;20188;-64
2022/01/13 07:58:38;;;;;;;19.40;14.13;;;;;;;4.93;53.13;101427.63;5071893;28;20281;-64
2022/01/13 08:01:05;;;;;;;32.60;19.43;;;;;;;5.14;53.98;101415.50;5073793;28;20199;-65
2022/01/13 08:03:31;;;;;;;18.77;13.73;;;;;;;5.46;57.77;101410.44;5073321;28;20961;-64
2022/01/13 08:06:00;;;;;;;14.73;11.27;;;;;;;4.63;52.75;101419.38;5064473;28;20225;-65
2022/01/13 08:08:27;;;;;;;14.63;11.53;;;;;;;4.56;55.24;101420.75;5074422;28;20196;-62
2022/01/13 08:10:53;;;;;;;49.10;11.60;;;;;;;4.35;59.47;101409.13;5073691;28;20192;-64
2022/01/13 08:13:20;;;;;;;12.47;10.87;;;;;;;4.47;58.95;101408.25;5071847;28;20192;-66
2022/01/13 08:15:51;;;;;;;15.60;12.03;;;;;;;5.53;57.76;101417.78;5071885;28;20203;-64
2022/01/13 08:21:03;;;;;;;12.00;10.23;;;;;;;5.98;49.54;101428.38;5063213;28;20194;-67
2022/01/13 08:23:29;;;;;;;17.70;12.13;;;;;;;5.66;48.93;101422.94;5065489;28;20223;-65
2022/01/13 08:25:57;;;;;;;24.87;13.37;;;;;;;5.36;50.17;101409.47;5068780;28;20260;-66
2022/01/13 08:28:26;;;;;;;13.07;10.63;;;;;;;5.20;50.26;101404.50;5066308;28;20271;-64
2022/01/13 08:30:54;;;;;;;17.70;9.33;;;;;;;4.86;51.09;101405.34;5068237;28;20188;-65
2022/01/13 08:33:22;;;;;;;9.53;8.50;;;;;;;4.55;51.52;101400.66;5062463;28;20255;-63
2022/01/13 08:35:49;;;;;;;11.00;9.00;;;;;;;4.09;53.06;101396.97;5066393;28;20283;-67
2022/01/13 08:38:19;;;;;;;11.37;10.20;;;;;;;4.10;54.09;101403.94;5066113;28;20220;-64
2022/01/13 08:40:48;;;;;;;15.30;10.47;;;;;;;4.01;52.70;101386.16;5067525;28;20484;-66
2022/01/13 08:43:15;;;;;;;13.17;10.30;;;;;;;4.38;52.56;101403.63;5068443;28;20801;-65
2022/01/13 08:45:43;;;;;;;48.10;13.70;;;;;;;4.49;53.74;101401.09;5069534;28;20630;-66
2022/01/13 08:48:11;;;;;;;11.50;10.27;;;;;;;4.41;52.27;101408.69;5069886;28;20192;-64
2022/01/13 08:50:38;;;;;;;12.07;9.80;;;;;;;4.81;50.31;101418.00;5072044;28;20426;-65
2022/01/13 08:53:05;;;;;;;16.87;11.20;;;;;;;4.89;49.60;101423.56;5071409;28;20875;-65
2022/01/13 08:55:32;;;;;;;25.27;15.03;;;;;;;4.34;50.91;101423.22;5071063;28;20196;-65
2022/01/13 08:57:59;;;;;;;19.50;13.37;;;;;;;4.89;51.13;101426.19;5071250;28;20590;-66
2022/01/13 09:00:27;;;;;;;17.93;13.60;;;;;;;4.57;50.53;101425.06;5051180;28;20439;-65
2022/01/13 09:02:53;;;;;;;17.10;12.10;;;;;;;4.50;51.58;101418.53;5051333;28;20192;-65
2022/01/13 09:05:22;;;;;;;13.00;11.00;;;;;;;4.67;51.72;101419.97;5057471;28;20192;-64
2022/01/13 09:07:48;;;;;;;15.30;11.17;;;;;;;4.42;52.86;101425.31;5070894;28;20215;-65
2022/01/13 09:10:17;;;;;;;14.57;11.37;;;;;;;4.77;53.72;101421.81;5071068;28;20192;-64
2022/01/13 09:12:44;;;;;;;23.27;12.47;;;;;;;5.15;49.94;101422.44;5068872;28;20595;-64
2022/01/13 09:15:18;;;;;;;18.40;11.33;;;;;;;4.96;51.48;101409.00;5092238;28;20654;-61
2022/01/13 09:17:51;;;;;;;20.58;13.00;;;;;;;5.89;50.76;101408.00;5089223;28;20436;-65
2022/01/13 09:20:18;;;;;;;13.90;12.27;;;;;;;6.03;47.10;101426.22;5091314;28;20249;-64
2022/01/13 09:22:47;;;;;;;20.90;13.57;;;;;;;6.16;46.87;101427.78;5091236;28;20238;-65
2022/01/13 09:25:13;;;;;;;15.07;11.33;;;;;;;6.30;48.21;101418.78;5090791;28;20244;-66
2022/01/13 09:27:41;;;;;;;14.30;10.90;;;;;;;5.58;47.00;101415.63;5091228;28;20221;-64
2022/01/13 09:30:09;;;;;;;18.37;12.93;;;;;;;5.35;48.90;101400.72;5071834;28;20230;-66
2022/01/13 09:32:36;;;;;;;17.30;12.43;;;;;;;5.63;48.91;101397.66;5070425;28;20224;-64
2022/01/13 09:35:04;;;;;;;14.53;12.37;;;;;;;5.47;48.78;101407.69;5070673;28;20180;-65
2022/01/13 09:37:31;;;;;;;18.17;11.47;;;;;;;4.97;49.15;101412.44;5070884;28;20716;-65
2022/01/13 09:39:59;;;;;;;20.23;13.60;;;;;;;5.06;50.53;101391.53;5070724;28;20220;-67
2022/01/13 09:42:27;;;;;;;30.97;15.80;;;;;;;5.53;49.32;101396.69;5070876;28;20725;-67
2022/01/13 09:44:54;;;;;;;24.03;15.27;;;;;;;5.39;50.04;101383.72;5068860;28;20218;-66
2022/01/13 09:47:21;;;;;;;26.63;14.97;;;;;;;4.93;51.17;101368.84;5070716;28;20196;-65
2022/01/13 09:49:49;;;;;;;44.90;16.43;;;;;;;4.84;51.53;101380.94;5070954;28;20196;-66
2022/01/13 09:52:15;;;;;;;24.53;14.93;;;;;;;5.11;51.95;101362.22;5070902;28;20495;-67
2022/01/13 09:54:42;;;;;;;21.43;12.30;;;;;;;5.28;50.42;101364.44;5071058;28;20548;-65
2022/01/13 09:57:10;;;;;;;16.83;12.17;;;;;;;5.48;51.91;101361.09;5071300;28;20188;-67
2022/01/13 09:59:37;;;;;;;19.37;13.17;;;;;;;5.71;50.59;101363.63;5071371;28;20220;-67
2022/01/13 10:02:04;;;;;;;17.00;12.33;;;;;;;5.80;50.65;101362.06;5069760;28;20195;-67
2022/01/13 10:04:47;;;;;;;25.50;13.83;;;;;;;5.54;50.84;101360.63;5071436;28;20253;-67
2022/01/13 10:07:18;;;;;;;16.67;12.83;;;;;;;5.20;51.95;101351.81;5068926;28;20249;-67
2022/01/13 10:09:55;;;;;;;40.10;15.67;;;;;;;4.83;51.93;101337.09;5071608;28;20194;-67
2022/01/13 10:12:29;;;;;;;17.23;13.40;;;;;;;4.41;54.00;101335.03;5071374;28;20195;-66
2022/01/13 10:17:46;;;;;;;25.80;13.27;;;;;;;4.91;52.60;101324.22;5071511;28;20582;-67
2022/01/13 10:20:15;;;;;;;25.57;12.93;;;;;;;4.86;52.50;101325.53;5071083;28;20992;-66
2022/01/13 10:22:42;;;;;;;23.80;12.33;;;;;;;5.07;51.96;101324.72;5071513;28;20439;-67
2022/01/13 10:25:24;;;;;;;20.13;13.50;;;;;;;5.07;51.63;101314.19;5071126;28;20610;-66
2022/01/13 10:27:52;;;;;;;21.90;15.23;;;;;;;5.25;51.18;101317.22;5071643;28;20180;-66
2022/01/13 10:30:22;;;;;;;27.23;14.13;;;;;;;5.10;50.28;101313.13;5074847;28;20698;-69
2022/01/13 10:32:48;;;;;;;20.37;12.17;;;;;;;5.22;50.27;101307.78;5075340;28;20318;-65
2022/01/13 10:35:17;;;;;;;19.90;11.97;;;;;;;5.16;49.07;101304.78;5075403;28;20195;-66
2022/01/13 10:37:45;;;;;;;14.60;10.87;;;;;;;5.02;48.94;101297.91;5075021;28;20244;-67
2022/01/13 10:40:16;;;;;;;14.37;11.27;;;;;;;4.88;48.38;101298.13;5075259;28;20277;-67
2022/01/13 10:43:07;;;;;;;13.57;11.03;;;;;;;4.43;49.22;101288.41;5070306;28;20187;-68
2022/01/13 10:45:38;;;;;;;13.77;10.87;;;;;;;4.67;50.46;101247.13;5075774;28;20237;-72
2022/01/13 10:48:07;;;;;;;20.87;11.57;;;;;;;4.74;50.06;101253.56;5075615;28;20438;-71
2022/01/13 10:50:36;;;;;;;22.43;10.23;;;;;;;4.34;48.64;101254.88;5073757;28;20253;-71
2022/01/13 10:53:05;;;;;;;12.23;10.20;;;;;;;4.24;49.69;101246.00;5071379;28;20491;-71
2022/01/13 10:55:36;;;;;;;14.13;10.97;;;;;;;4.45;49.39;101239.13;5069178;28;20264;-71
2022/01/13 10:58:03;;;;;;;14.37;10.67;;;;;;;4.55;48.80;101237.50;5066539;28;20437;-72
2022/01/13 11:00:33;;;;;;;12.77;10.20;;;;;;;4.26;49.23;101238.84;5075318;28;20292;-72
2022/01/13 11:03:05;;;;;;;18.03;11.00;;;;;;;4.42;48.87;101236.72;5075516;28;20516;-69
2022/01/13 11:05:34;;;;;;;17.57;9.37;;;;;;;4.44;49.45;101240.09;5075082;28;20238;-69
2022/01/13 11:08:03;;;;;;;9.80;8.87;;;;;;;4.43;48.60;101227.91;5075452;28;20498;-71
2022/01/13 11:10:30;;;;;;;9.50;8.50;;;;;;;4.27;48.78;101231.78;5075355;28;20446;-71
2022/01/13 11:12:59;;;;;;;16.37;10.70;;;;;;;4.19;49.23;101224.47;5075313;28;20196;-71
2022/01/13 11:15:27;;;;;;;14.17;10.27;;;;;;;3.97;50.19;101220.88;5075359;28;20473;-72
2022/01/13 11:17:55;;;;;;;21.37;10.13;;;;;;;4.10;50.44;101205.88;5075511;28;20524;-72
2022/01/13 11:20:25;;;;;;;23.17;11.60;;;;;;;4.56;50.61;101206.75;5075094;28;20532;-72
2022/01/13 11:22:54;;;;;;;14.00;9.50;;;;;;;4.33;48.52;101212.91;5074788;28;21003;-73
2022/01/13 11:25:24;;;;;;;11.93;10.10;;;;;;;4.37;48.56;101202.03;5075061;28;20491;-74
2022/01/13 11:27:52;;;;;;;12.77;9.53;;;;;;;4.57;49.69;101204.00;5074360;28;20434;-71
2022/01/13 11:30:20;;;;;;;10.60;9.50;;;;;;;4.74;47.82;101200.09;5075181;28;20446;-73
2022/01/13 11:32:48;;;;;;;14.70;9.83;;;;;;;4.49;48.03;101185.31;5074976;28;20288;-69